createdAt,value
2023-04-12T00:00:10.750Z,94179.91
2023-04-12T00:02:40.594Z,94173.84
2023-04-12T00:05:09.835Z,94170.22
2023-04-12T00:07:39.580Z,94151.94
2023-04-12T00:10:09.627Z,94144.09
2023-04-12T00:12:37.854Z,94162.56
2023-04-12T00:15:10.870Z,94158.56
2023-04-12T00:17:38.934Z,94162.94
2023-04-12T00:20:12.282Z,94142.63
2023-04-12T00:22:42.710Z,94155.69
2023-04-12T00:25:12.094Z,94153.78
2023-04-12T00:27:40.917Z,94154.38
2023-04-12T00:30:09.806Z,94152.31
2023-04-12T00:32:37.800Z,94145.31
2023-04-12T00:35:07.055Z,94146.53
2023-04-12T00:37:36.409Z,94150.53
2023-04-12T00:40:08.417Z,94149.50
2023-04-12T00:42:37.657Z,94150.25
2023-04-12T00:45:08.656Z,94148.75
2023-04-12T00:47:37.787Z,94154.53
2023-04-12T00:50:07.263Z,94147.09
2023-04-12T00:52:36.005Z,94155.19
2023-04-12T00:55:09.903Z,94145.97
2023-04-12T00:57:40.346Z,94138.41
2023-04-12T01:00:13.974Z,94142.03
2023-04-12T01:02:47.788Z,94142.03
2023-04-12T01:05:22.371Z,94139.91
2023-04-12T01:08:01.257Z,94135.72
2023-04-12T01:10:39.590Z,94145.41
2023-04-12T01:13:19.240Z,94129.66
2023-04-12T01:15:55.185Z,94132.75
2023-04-12T01:18:28.618Z,94125.09
2023-04-12T01:21:01.706Z,94128.34
2023-04-12T01:23:49.650Z,94133.66
2023-04-12T01:26:34.431Z,94131.59
2023-04-12T01:29:10.270Z,94121.72
2023-04-12T01:31:41.055Z,94135.91
2023-04-12T01:34:12.987Z,94135.53
2023-04-12T01:36:43.945Z,94127.72
2023-04-12T01:39:12.640Z,94128.81
2023-04-12T01:41:45.451Z,94120.06
2023-04-12T01:44:16.646Z,94073.25
2023-04-12T01:46:44.984Z,94080.19
2023-04-12T01:49:14.038Z,94121.47
2023-04-12T01:51:51.163Z,94059.03
2023-04-12T01:54:26.078Z,94112.59
2023-04-12T01:56:59.096Z,94124.50
2023-04-12T01:59:33.838Z,94118.94
2023-04-12T02:02:03.480Z,94118.75
2023-04-12T02:04:32.169Z,94110.19
2023-04-12T02:07:00.394Z,94103.84
2023-04-12T02:09:28.579Z,94102.38
2023-04-12T02:11:58.260Z,94104.41
2023-04-12T02:14:27.355Z,94102.53
2023-04-12T02:16:58.583Z,94104.44
2023-04-12T02:19:26.686Z,94094.91
2023-04-12T02:21:54.775Z,94021.28
2023-04-12T02:24:22.905Z,94107.97
2023-04-12T02:26:51.276Z,94102.56
2023-04-12T02:29:19.491Z,94098.81
2023-04-12T02:31:48.614Z,94094.72
2023-04-12T02:34:19.073Z,94102.91
2023-04-12T02:36:48.657Z,94059.75
2023-04-12T02:39:18.894Z,94110.38
2023-04-12T02:41:47.221Z,94111.13
2023-04-12T02:44:15.309Z,94113.94
2023-04-12T02:46:43.332Z,94105.34
2023-04-12T02:49:13.076Z,94095.56
2023-04-12T02:51:43.080Z,94089.41
2023-04-12T02:54:11.329Z,94105.72
2023-04-12T02:56:39.704Z,94094.00
2023-04-12T02:59:08.079Z,94105.16
2023-04-12T03:01:36.398Z,94094.72
2023-04-12T03:04:04.630Z,94107.22
2023-04-12T03:06:33.101Z,94104.78
2023-04-12T03:09:03.203Z,94099.09
2023-04-12T03:11:31.554Z,94101.53
2023-04-12T03:13:59.657Z,94104.78
2023-04-12T03:16:30.364Z,94098.53
2023-04-12T03:18:59.821Z,94096.03
2023-04-12T03:21:28.396Z,94105.63
2023-04-12T03:23:57.081Z,94102.75
2023-04-12T03:26:28.143Z,94091.38
2023-04-12T03:28:57.910Z,94080.53
2023-04-12T03:31:27.319Z,94101.44
2023-04-12T03:33:56.018Z,94095.38
2023-04-12T03:36:24.874Z,94108.91
2023-04-12T03:38:52.744Z,94113.72
2023-04-12T03:41:25.063Z,94113.28
2023-04-12T03:43:54.804Z,94121.19
2023-04-12T03:46:23.355Z,94106.56
2023-04-12T03:48:52.286Z,94120.06
2023-04-12T03:51:22.362Z,94115.41
2023-04-12T03:53:50.707Z,94116.88
2023-04-12T03:56:21.116Z,94108.53
2023-04-12T03:58:49.259Z,94106.09
2023-04-12T04:01:18.962Z,94112.41
2023-04-12T04:03:48.255Z,94111.41
2023-04-12T04:06:17.561Z,94115.97
2023-04-12T04:08:47.102Z,94109.63
2023-04-12T04:11:15.217Z,94118.59
2023-04-12T04:13:43.572Z,94113.19
2023-04-12T04:16:11.948Z,94126.50
2023-04-12T04:18:42.677Z,94124.63
2023-04-12T04:21:10.735Z,94134.94
2023-04-12T04:23:39.934Z,94143.72
2023-04-12T04:26:11.064Z,94119.31
2023-04-12T04:28:39.742Z,94143.09
2023-04-12T04:31:10.728Z,94140.28
2023-04-12T04:33:39.095Z,94126.41
2023-04-12T04:36:13.370Z,94158.28
2023-04-12T04:38:44.329Z,94153.81
2023-04-12T04:41:12.441Z,94149.72
2023-04-12T04:43:42.899Z,94166.38
2023-04-12T04:46:11.069Z,94162.19
2023-04-12T04:48:39.085Z,94165.75
2023-04-12T04:51:09.138Z,94168.63
2023-04-12T04:53:38.747Z,94170.22
2023-04-12T04:56:07.479Z,94154.16
2023-04-12T04:58:36.270Z,94179.53
2023-04-12T05:01:05.400Z,94172.44
2023-04-12T05:03:34.346Z,94178.97
2023-04-12T05:06:03.599Z,94188.00
2023-04-12T05:08:33.000Z,94182.16
2023-04-12T05:11:02.244Z,94186.81
2023-04-12T05:13:30.708Z,94136.28
2023-04-12T05:15:58.638Z,94189.78
2023-04-12T05:18:26.786Z,94193.91
2023-04-12T05:20:54.805Z,94195.09
2023-04-12T05:23:23.465Z,94194.16
2023-04-12T05:25:52.732Z,94185.88
2023-04-12T05:28:20.725Z,94196.41
2023-04-12T05:30:48.685Z,94195.75
2023-04-12T05:33:16.885Z,94195.38
2023-04-12T05:35:45.627Z,94189.69
2023-04-12T05:38:13.662Z,94186.25
2023-04-12T05:40:42.215Z,94195.38
2023-04-12T05:43:13.105Z,94197.44
2023-04-12T05:45:41.442Z,94205.63
2023-04-12T05:48:09.734Z,94214.22
2023-04-12T05:50:37.698Z,94206.75
2023-04-12T05:53:06.363Z,94207.69
2023-04-12T05:55:37.289Z,94204.13
2023-04-12T05:58:06.261Z,94217.75
2023-04-12T06:00:36.911Z,94209.38
2023-04-12T06:03:05.220Z,94215.31
2023-04-12T06:05:35.637Z,94209.81
2023-04-12T06:08:05.537Z,94213.09
2023-04-12T06:10:33.642Z,94126.75
2023-04-12T06:13:01.532Z,94225.94
2023-04-12T06:15:32.126Z,94230.81
2023-04-12T06:18:02.684Z,94220.00
2023-04-12T06:20:30.682Z,94237.06
2023-04-12T06:22:59.207Z,94237.63
2023-04-12T06:25:27.229Z,94243.31
2023-04-12T06:27:55.421Z,94250.84
2023-04-12T06:30:23.408Z,94248.88
2023-04-12T06:32:51.545Z,94170.22
2023-04-12T06:35:21.731Z,94240.94
2023-04-12T06:37:49.681Z,94226.97
2023-04-12T06:40:17.853Z,94252.25
2023-04-12T06:42:45.783Z,94244.72
2023-04-12T06:45:14.914Z,94233.66
2023-04-12T06:47:43.097Z,94225.09
2023-04-12T06:50:11.867Z,94236.63
2023-04-12T06:52:41.785Z,94104.66
2023-04-12T06:55:10.679Z,94236.00
2023-04-12T06:57:42.934Z,94229.31
2023-04-12T07:00:12.600Z,94209.00
2023-04-12T07:02:40.888Z,94142.16
2023-04-12T07:05:09.688Z,94215.16
2023-04-12T07:07:39.045Z,94221.59
2023-04-12T07:10:10.333Z,94213.91
2023-04-12T07:12:38.291Z,94217.34
2023-04-12T07:15:07.109Z,94218.03
2023-04-12T07:17:35.661Z,94225.25
2023-04-12T07:20:03.674Z,94192.09
2023-04-12T07:22:33.923Z,94175.81
2023-04-12T07:25:02.110Z,94147.06
2023-04-12T07:27:31.413Z,94203.13
2023-04-12T07:29:59.362Z,94186.28
2023-04-12T07:32:28.584Z,94201.50
2023-04-12T07:34:57.027Z,94186.19
2023-04-12T07:37:25.027Z,94195.03
2023-04-12T07:39:53.094Z,94197.34
2023-04-12T07:42:21.101Z,94210.13
2023-04-12T07:44:50.783Z,94216.09
2023-04-12T07:47:19.120Z,94207.81
2023-04-12T07:49:47.116Z,94200.03
2023-04-12T07:52:15.155Z,94212.94
2023-04-12T07:54:43.272Z,94202.59
2023-04-12T07:57:11.347Z,94200.56
2023-04-12T07:59:39.543Z,94152.22
2023-04-12T08:02:09.476Z,94178.25
2023-04-12T08:04:38.294Z,94077.97
2023-04-12T08:07:06.375Z,94174.53
2023-04-12T08:09:34.380Z,94192.50
2023-04-12T08:12:03.633Z,94201.53
2023-04-12T08:14:31.579Z,94186.66
2023-04-12T08:16:59.570Z,94201.97
2023-04-12T08:19:29.119Z,94198.84
2023-04-12T08:21:58.620Z,94189.78
2023-04-12T08:24:26.928Z,94211.88
2023-04-12T08:26:56.069Z,94219.19
2023-04-12T08:29:24.014Z,94210.09
2023-04-12T08:31:52.868Z,94202.59
2023-04-12T08:34:22.542Z,94197.28
2023-04-12T08:36:52.410Z,94192.97
2023-04-12T08:39:21.708Z,94189.91
2023-04-12T08:41:50.685Z,94197.34
2023-04-12T08:44:19.676Z,94190.94
2023-04-12T08:46:48.702Z,94199.66
2023-04-12T08:49:18.887Z,94171.16
2023-04-12T08:51:47.235Z,94169.03
2023-04-12T08:54:16.697Z,94191.50
2023-04-12T08:56:46.061Z,94136.13
2023-04-12T08:59:15.266Z,94171.06
2023-04-12T09:01:43.624Z,94171.38
2023-04-12T09:04:11.831Z,94159.41
2023-04-12T09:06:41.685Z,94170.94
2023-04-12T09:09:10.182Z,94160.38
2023-04-12T09:11:40.296Z,94156.78
2023-04-12T09:14:22.220Z,94156.94
2023-04-12T09:16:50.968Z,94113.28
2023-04-12T09:19:32.856Z,94147.94
2023-04-12T09:22:01.808Z,94149.09
2023-04-12T09:24:30.535Z,94094.50
2023-04-12T09:27:06.999Z,94142.00
2023-04-12T09:29:35.314Z,94131.22
2023-04-12T09:32:04.934Z,94149.09
2023-04-12T09:34:35.199Z,94158.22
2023-04-12T09:37:14.275Z,94145.13
2023-04-12T09:39:42.383Z,94146.88
2023-04-12T09:42:25.576Z,94141.91
2023-04-12T09:45:03.015Z,94130.56
2023-04-12T09:47:42.063Z,94144.41
2023-04-12T09:50:11.100Z,94134.47
2023-04-12T09:52:40.419Z,94133.41
2023-04-12T09:55:11.875Z,94096.50
2023-04-12T09:57:43.266Z,94105.75
2023-04-12T10:00:17.562Z,94057.78
2023-04-12T10:02:47.982Z,94097.53
2023-04-12T10:05:20.189Z,94101.78
2023-04-12T10:07:51.233Z,94104.88
2023-04-12T10:10:20.942Z,94096.06
2023-04-12T10:12:51.286Z,94087.19
2023-04-12T10:15:21.975Z,94056.97
2023-04-12T10:17:53.946Z,94086.41
2023-04-12T10:20:28.237Z,94089.13
2023-04-12T10:22:59.631Z,94101.47
2023-04-12T10:25:31.926Z,94096.00
2023-04-12T10:28:15.381Z,94105.69
2023-04-12T10:30:43.421Z,94072.78
2023-04-12T10:33:17.065Z,94092.09
2023-04-12T10:36:00.961Z,94090.88
2023-04-12T10:38:35.780Z,94074.81
2023-04-12T10:41:17.352Z,94092.34
2023-04-12T10:43:47.548Z,94076.28
2023-04-12T10:46:53.789Z,94077.28
2023-04-12T10:49:21.931Z,94063.66
2023-04-12T10:52:19.036Z,94060.19
2023-04-12T10:54:51.034Z,94044.63
2023-04-12T10:57:47.954Z,94032.25
2023-04-12T11:00:18.665Z,94052.00
2023-04-12T11:03:07.656Z,94042.63
2023-04-12T11:05:58.478Z,94043.13
2023-04-12T11:08:27.793Z,94029.22
2023-04-12T11:11:04.680Z,94005.97
2023-04-12T11:13:36.966Z,94041.59
2023-04-12T11:16:07.895Z,94035.81
2023-04-12T11:18:37.762Z,94031.06
2023-04-12T11:21:06.843Z,94046.22
2023-04-12T11:23:36.346Z,94048.66
2023-04-12T11:26:05.158Z,94037.09
2023-04-12T11:28:35.208Z,94048.28
2023-04-12T11:31:04.325Z,94049.28
2023-04-12T11:33:35.181Z,94003.50
2023-04-12T11:36:06.470Z,94032.56
2023-04-12T11:38:36.840Z,94057.22
2023-04-12T11:41:06.974Z,94042.94
2023-04-12T11:43:38.961Z,94045.91
2023-04-12T11:46:07.263Z,93988.34
2023-04-12T11:48:38.966Z,94022.81
2023-04-12T11:51:20.787Z,94043.28
2023-04-12T11:53:54.126Z,94053.13
2023-04-12T11:56:22.109Z,94025.69
2023-04-12T11:58:50.126Z,94037.38
2023-04-12T12:01:20.796Z,94029.94
2023-04-12T12:03:52.275Z,94020.72
2023-04-12T12:06:22.701Z,94037.56
2023-04-12T12:08:51.999Z,94050.63
2023-04-12T12:11:21.687Z,94038.94
2023-04-12T12:13:51.315Z,94040.09
2023-04-12T12:16:20.410Z,94023.81
2023-04-12T12:18:52.602Z,94008.56
2023-04-12T12:21:22.007Z,94023.63
2023-04-12T12:23:50.884Z,94024.66
2023-04-12T12:26:23.066Z,93994.16
2023-04-12T12:28:52.842Z,93974.22
2023-04-12T12:31:22.600Z,94033.00
2023-04-12T12:33:57.046Z,94023.34
2023-04-12T12:36:33.434Z,94059.56
2023-04-12T12:39:10.982Z,94037.53
2023-04-12T12:41:40.186Z,94035.50
2023-04-12T12:44:08.962Z,94042.94
2023-04-12T12:49:09.295Z,94045.53
2023-04-12T12:51:37.410Z,94030.91
2023-04-12T12:54:05.412Z,94052.19
2023-04-12T12:56:33.368Z,94046.31
2023-04-12T12:59:01.431Z,94036.69
2023-04-12T13:01:31.102Z,94046.25
2023-04-12T13:03:59.437Z,94040.88
2023-04-12T13:06:29.739Z,94054.22
2023-04-12T13:08:58.314Z,94057.44
2023-04-12T13:11:26.536Z,94037.66
2023-04-12T13:13:54.659Z,94034.16
2023-04-12T13:16:24.732Z,94044.75
2023-04-12T13:18:54.624Z,94037.41
2023-04-12T13:21:22.846Z,94035.84
2023-04-12T13:23:52.146Z,94050.66
2023-04-12T13:26:20.186Z,94059.28
2023-04-12T13:28:48.115Z,94055.06
2023-04-12T13:31:16.496Z,94060.72
2023-04-12T13:33:44.824Z,94067.59
2023-04-12T13:36:12.998Z,94046.28
2023-04-12T13:38:41.461Z,94062.41
2023-04-12T13:41:11.201Z,94032.06
2023-04-12T13:43:39.556Z,94053.31
2023-04-12T13:46:07.839Z,94056.16
2023-04-12T13:48:36.224Z,94051.19
2023-04-12T13:51:04.477Z,94062.28
2023-04-12T13:53:33.801Z,94065.59
2023-04-12T13:56:02.252Z,94040.41
2023-04-12T13:58:32.154Z,94064.25
2023-04-12T14:01:01.107Z,94055.09
2023-04-12T14:03:29.602Z,94066.00
2023-04-12T14:05:57.619Z,94066.66
2023-04-12T14:08:25.577Z,94054.16
2023-04-12T14:10:54.705Z,94066.59
2023-04-12T14:13:24.625Z,94059.94
2023-04-12T14:15:54.899Z,94071.41
2023-04-12T14:18:22.963Z,94057.44
2023-04-12T14:20:55.088Z,94061.72
2023-04-12T14:23:25.300Z,93986.44
2023-04-12T14:25:53.824Z,94070.72
2023-04-12T14:28:24.560Z,94018.84
2023-04-12T14:30:54.553Z,94066.09
2023-04-12T14:33:22.542Z,94064.78
2023-04-12T14:35:50.569Z,94082.09
2023-04-12T14:38:18.508Z,94080.13
2023-04-12T14:40:46.635Z,94079.13
2023-04-12T14:43:14.682Z,94086.06
2023-04-12T14:45:42.566Z,94085.53
2023-04-12T14:48:11.806Z,94092.50
2023-04-12T14:50:41.005Z,94089.59
2023-04-12T14:53:09.974Z,94087.84
2023-04-12T14:55:37.931Z,94087.63
2023-04-12T14:58:06.516Z,94096.28
2023-04-12T15:00:35.331Z,94062.41
2023-04-12T15:03:03.645Z,94091.59
2023-04-12T15:05:33.164Z,94094.06
2023-04-12T15:08:03.860Z,94108.44
2023-04-12T15:10:32.179Z,94096.56
2023-04-12T15:13:00.117Z,94121.06
2023-04-12T15:15:28.589Z,94114.63
2023-04-12T15:17:56.902Z,94110.91
2023-04-12T15:20:24.932Z,94120.53
2023-04-12T15:22:54.289Z,94126.50
2023-04-12T15:25:22.978Z,94113.41
2023-04-12T15:27:51.547Z,94138.13
2023-04-12T15:30:19.497Z,94123.53
2023-04-12T15:32:47.548Z,94133.16
2023-04-12T15:35:26.584Z,94131.44
2023-04-12T15:37:56.679Z,94135.16
2023-04-12T15:40:24.635Z,94143.56
2023-04-12T15:42:52.800Z,94142.09
2023-04-12T15:45:21.566Z,94133.44
2023-04-12T15:47:49.455Z,94143.09
2023-04-12T15:50:17.841Z,94148.25
2023-04-12T15:52:46.098Z,94134.44
2023-04-12T15:55:17.178Z,94127.75
2023-04-12T15:57:45.405Z,94135.66
2023-04-12T16:00:23.108Z,94133.66
2023-04-12T16:02:54.958Z,94148.72
2023-04-12T16:05:23.389Z,94143.00
2023-04-12T16:07:51.902Z,94146.72
2023-04-12T16:10:22.735Z,94146.66
2023-04-12T16:12:51.946Z,94080.50
2023-04-12T16:15:21.180Z,94162.69
2023-04-12T16:17:52.054Z,94152.78
2023-04-12T16:20:21.797Z,94153.59
2023-04-12T16:22:54.323Z,94147.63
2023-04-12T16:25:25.231Z,94153.09
2023-04-12T16:27:53.398Z,94145.88
2023-04-12T16:30:23.039Z,94161.69
2023-04-12T16:32:52.270Z,94164.16
2023-04-12T16:35:20.401Z,94165.69
2023-04-12T16:37:48.613Z,94172.56
2023-04-12T16:40:17.298Z,94176.44
2023-04-12T16:42:47.062Z,94182.59
2023-04-12T16:45:15.622Z,94188.28
2023-04-12T16:47:43.992Z,94177.16
2023-04-12T16:50:13.562Z,94189.19
2023-04-12T16:52:42.113Z,94187.16
2023-04-12T16:55:11.451Z,94192.13
2023-04-12T16:57:41.438Z,94200.53
2023-04-12T17:00:20.636Z,94195.25
2023-04-12T17:02:50.907Z,94206.34
2023-04-12T17:05:20.157Z,94207.47
2023-04-12T17:07:49.905Z,94214.38
2023-04-12T17:10:18.801Z,94159.50
2023-04-12T17:12:47.134Z,94217.56
2023-04-12T17:15:18.175Z,94213.53
2023-04-12T17:17:48.367Z,94236.00
2023-04-12T17:20:16.847Z,94229.97
2023-04-12T17:22:44.893Z,94231.22
2023-04-12T17:25:13.453Z,94209.53
2023-04-12T17:27:42.077Z,94243.94
2023-04-12T17:30:13.239Z,94242.94
2023-04-12T17:32:42.747Z,94247.31
2023-04-12T17:35:13.163Z,94241.84
2023-04-12T17:37:41.552Z,94260.38
2023-04-12T17:40:11.846Z,94230.38
2023-04-12T17:42:41.689Z,94268.56
2023-04-12T17:45:12.921Z,94259.41
2023-04-12T17:47:43.444Z,94266.97
2023-04-12T17:50:12.661Z,94267.16
2023-04-12T17:52:41.325Z,94228.50
2023-04-12T17:55:10.877Z,94276.06
2023-04-12T17:57:39.269Z,94275.13
2023-04-12T18:00:11.943Z,94278.31
2023-04-12T18:02:40.658Z,94280.44
2023-04-12T18:05:11.726Z,94284.56
2023-04-12T18:07:42.690Z,94295.22
2023-04-12T18:10:13.005Z,94306.63
2023-04-12T18:12:41.201Z,94296.41
2023-04-12T18:15:11.189Z,94303.78
2023-04-12T18:17:40.234Z,94308.78
2023-04-12T18:20:12.272Z,94245.59
2023-04-12T18:22:40.252Z,94314.19
2023-04-12T18:25:11.709Z,94309.00
2023-04-12T18:27:43.650Z,94307.56
2023-04-12T18:30:15.266Z,94312.84
2023-04-12T18:32:44.802Z,94309.97
2023-04-12T18:35:15.411Z,94313.09
2023-04-12T18:37:44.123Z,94313.22
2023-04-12T18:40:13.933Z,94322.34
2023-04-12T18:42:41.881Z,94312.63
2023-04-12T18:45:11.448Z,94310.81
2023-04-12T18:47:40.170Z,94321.66
2023-04-12T18:50:10.154Z,94315.41
2023-04-12T18:52:39.936Z,94316.63
2023-04-12T18:55:09.201Z,94314.38
2023-04-12T18:57:37.343Z,94320.66
2023-04-12T19:00:10.712Z,94319.66
2023-04-12T19:02:41.303Z,94315.63
2023-04-12T19:05:11.250Z,94328.84
2023-04-12T19:07:41.202Z,94323.91
2023-04-12T19:10:10.386Z,94324.16
2023-04-12T19:12:38.283Z,94322.22
2023-04-12T19:15:08.544Z,94291.16
2023-04-12T19:17:39.034Z,94301.59
2023-04-12T19:20:09.024Z,94328.91
2023-04-12T19:22:37.306Z,94330.50
2023-04-12T19:25:16.942Z,94331.34
2023-04-12T19:27:46.366Z,94330.81
2023-04-12T19:30:17.199Z,94341.34
2023-04-12T19:32:45.511Z,94348.91
2023-04-12T19:35:14.163Z,94343.78
2023-04-12T19:37:42.707Z,94333.97
2023-04-12T19:40:13.903Z,94330.06
2023-04-12T19:42:42.992Z,94324.09
2023-04-12T19:45:11.387Z,94332.94
2023-04-12T19:47:44.852Z,94337.25
2023-04-12T19:50:15.127Z,94327.44
2023-04-12T19:52:44.074Z,94330.25
2023-04-12T19:55:14.622Z,94323.88
2023-04-12T19:57:43.116Z,94330.44
2023-04-12T20:00:19.700Z,94330.66
2023-04-12T20:02:49.055Z,94320.00
2023-04-12T20:05:17.380Z,94317.00
2023-04-12T20:07:45.662Z,94323.91
2023-04-12T20:10:15.626Z,94331.19
2023-04-12T20:12:44.395Z,94332.13
2023-04-12T20:15:13.229Z,94328.75
2023-04-12T20:17:42.643Z,94247.41
2023-04-12T20:20:12.924Z,94322.97
2023-04-12T20:22:43.434Z,94325.25
2023-04-12T20:25:13.136Z,94318.84
2023-04-12T20:27:44.960Z,94317.94
2023-04-12T20:30:17.731Z,94324.09
2023-04-12T20:32:47.205Z,94322.31
2023-04-12T20:35:15.835Z,94315.72
2023-04-12T20:37:44.918Z,94322.81
2023-04-12T20:40:13.991Z,94323.00
2023-04-12T20:42:45.118Z,94331.50
2023-04-12T20:45:14.239Z,94315.81
2023-04-12T20:47:42.202Z,94328.78
2023-04-12T20:50:12.578Z,94328.78
2023-04-12T20:52:41.011Z,94335.03
2023-04-12T20:55:11.126Z,94328.22
2023-04-12T20:57:39.233Z,94338.38
2023-04-12T21:00:17.364Z,94333.81
2023-04-12T21:02:46.942Z,94333.25
2023-04-12T21:05:16.929Z,94330.38
2023-04-12T21:07:46.901Z,94338.28
2023-04-12T21:10:15.413Z,94333.41
2023-04-12T21:12:45.112Z,94337.13
2023-04-12T21:15:18.075Z,94338.81
2023-04-12T21:17:46.598Z,94338.19
2023-04-12T21:20:16.165Z,94333.69
2023-04-12T21:22:45.080Z,94338.66
2023-04-12T21:25:16.776Z,94329.88
2023-04-12T21:27:47.361Z,94334.13
2023-04-12T21:30:16.741Z,94322.66
2023-04-12T21:32:44.826Z,94323.28
2023-04-12T21:35:13.330Z,94318.03
2023-04-12T21:37:41.332Z,94260.78
2023-04-12T21:40:12.917Z,94316.81
2023-04-12T21:42:41.970Z,94318.53
2023-04-12T21:45:10.699Z,94312.31
2023-04-12T21:47:42.853Z,94327.88
2023-04-12T21:50:11.885Z,94294.88
2023-04-12T21:52:41.335Z,94323.81
2023-04-12T21:55:09.447Z,94331.53
2023-04-12T21:57:37.702Z,94322.66
2023-04-12T22:00:08.832Z,94334.84
2023-04-12T22:02:36.944Z,94331.72
2023-04-12T22:05:07.736Z,94333.44
2023-04-12T22:07:36.011Z,94330.22
2023-04-12T22:10:05.111Z,94337.94
2023-04-12T22:12:34.045Z,94318.97
2023-04-12T22:15:01.975Z,94340.50
2023-04-12T22:17:31.439Z,94268.69
2023-04-12T22:19:59.851Z,94337.41
2023-04-12T22:22:30.060Z,94327.28
2023-04-12T22:24:58.414Z,94325.28
2023-04-12T22:27:27.157Z,94319.59
2023-04-12T22:29:55.084Z,94326.78
2023-04-12T22:32:24.386Z,94326.41
2023-04-12T22:35:05.236Z,94321.16
2023-04-12T22:37:38.933Z,94330.16
2023-04-12T22:40:11.898Z,94324.03
2023-04-12T22:42:46.696Z,94270.69
2023-04-12T22:45:15.781Z,94315.66
2023-04-12T22:47:44.127Z,94316.53
2023-04-12T22:50:12.974Z,94315.03
2023-04-12T22:52:42.973Z,94332.97
2023-04-12T22:55:14.062Z,94317.59
2023-04-12T22:57:42.661Z,94319.78
2023-04-12T23:00:14.948Z,94314.16
2023-04-12T23:02:47.487Z,94322.28
2023-04-12T23:05:16.597Z,94324.72
2023-04-12T23:07:47.238Z,94319.41
2023-04-12T23:10:15.199Z,94325.50
2023-04-12T23:12:43.479Z,94315.41
2023-04-12T23:15:12.826Z,94317.50
2023-04-12T23:17:40.948Z,94293.78
2023-04-12T23:20:13.533Z,94319.63
2023-04-12T23:22:57.403Z,94316.31
2023-04-12T23:25:39.624Z,94325.34
2023-04-12T23:28:12.994Z,94329.28
2023-04-12T23:30:44.602Z,94325.59
2023-04-12T23:33:13.176Z,94324.06
2023-04-12T23:35:42.118Z,94322.25
2023-04-12T23:38:11.158Z,94330.09
2023-04-12T23:40:40.539Z,94321.78
2023-04-12T23:43:09.246Z,94323.34
2023-04-12T23:45:38.509Z,94338.00
2023-04-12T23:48:07.308Z,94276.03
2023-04-12T23:50:35.357Z,94332.31
2023-04-12T23:53:03.760Z,94327.50
2023-04-12T23:55:32.213Z,94329.84
2023-04-12T23:58:01.934Z,94329.00
